CheckWX is a tool to help pilots better visualize weather data.  It is not intended as a substitute for an official pre-flight weather briefing.

09:31:07 UTC

KFOD METAR
Fort Dodge Regional Airport
Fort Dodge, Iowa, USA
Current

35 mins ago

KFOD 200856Z AUTO 11018G24KT 5SM UP BR FEW012 OVC060 M05/M06 A2986 RMK AO2 UPB27SNE27 PRESFR SLP159 P0000 60000 T10501061 58068 FZRANO
Observed
Feb-20 @ 08:56 UTC
Wind
  • 110° at 18 KTS
  • Gusting to 24 KTS
Visibility
8,047 meters
Flight Rules
MVFR
Conditions
Mist, Unknown precipitation
Cloud Levels
  • Few at 1,200' AGL
  • Overcast at 6,000' AGL
Temperature
-5°C / 23°F
Dewpoint
-6°C / 21°F
Humidity
93%
Altimeter
29.86" Hg
Pressure
1015.9 hPa
Current Rain
0.01"
Previous

1 hour ago

KFOD 200816Z AUTO 11019KT 5SM -SN BR FEW005 SCT012 OVC075 M06/M07 A2992 RMK AO2 P0000 FZRANO
Observed
Feb-20 @ 08:16 UTC
Wind
  • 110° at 19 KTS
Visibility
8,047 meters
Flight Rules
MVFR
Conditions
Light Snow, Mist
Cloud Levels
  • Few at 500' AGL
  • Scattered at 1,200' AGL
  • Overcast at 7,500' AGL
Temperature
-6°C / 21°F
Dewpoint
-7°C / 19°F
Humidity
93%
Altimeter
29.92" Hg
Pressure
1013.22 hPa
Current Rain
0.01"
Previous

2 hours ago

KFOD 200756Z AUTO 12016G22KT 2SM -SN BR FEW006 OVC012 M06/M07 A2995 RMK AO2 SLP191 P0000 T10611067 FZRANO
Observed
Feb-20 @ 07:56 UTC
Wind
  • 120° at 16 KTS
  • Gusting to 22 KTS
Visibility
3,219 meters
Flight Rules
IFR
Conditions
Light Snow, Mist
Cloud Levels
  • Few at 600' AGL
  • Overcast at 1,200' AGL
Temperature
-6°C / 21°F
Dewpoint
-7°C / 19°F
Humidity
93%
Altimeter
29.95" Hg
Pressure
1019.1 hPa
Current Rain
0.01"